Latest Weather Observations for Moorabbin Airport

IDV60801

Issued at 12:31 pm EDT Monday 8 February 2016 (issued every 30 minutes, with the page automatically refreshed every 10 minutes)

About weather observations | Map of weather stations | Latest weather observations for VIC | Other Formats
Station Details ID: 086077 Name: MOORABBIN AIRPORT Lat: -37.98 Lon: 145.10 Height: 12.1 m
Data from the previous 72 hours. | See also: Recent months at Moorabbin Airport
Date/Time
EDT
Temp
°C
App
Temp
°C
Dew
Point
Rel
Hum
%
Delta-T
°C
Wind Press
QNH
hPa
Press
MSL
hPa
Rain
since 9 am
mm
Dir
 
Spd
km/h
Gust
km/h
Spd
kts
Gust
kts
08/12:30pm 22.1 19.3 13.2 57 5.1 SW 20 28 11 15 1022.4 1022.4 0.0
08/12:00pm 21.2 18.6 13.1 60 4.6 SW 19 26 10 14 1022.6 1022.6 0.0
08/11:30am 20.8 17.9 12.8 60 4.5 SW 20 24 11 13 1022.8 1022.8 0.0
08/11:00am 20.8 18.7 13.5 63 4.2 SSW 17 20 9 11 1022.7 1022.7 0.0
08/10:30am 20.2 18.1 13.6 66 3.8 SSW 17 20 9 11 1022.7 1022.7 0.0
08/10:00am 20.0 18.4 13.9 68 3.5 S 15 20 8 11 1022.5 1022.5 0.0
08/09:30am 19.5 17.5 13.9 70 3.2 S 17 20 9 11 1022.4 1022.4 0.0
08/09:00am 19.2 18.1 14.2 73 2.9 S 13 19 7 10 1022.1 1022.1 0.0
08/08:30am 19.0 19.4 14.7 76 2.5 SE 6 7 3 4 1021.8 1021.8 0.0
08/08:00am 18.8 19.1 15.1 79 2.2 ESE 7 11 4 6 1021.5 1021.5 0.0
08/07:30am 18.7 19.1 15.2 80 2.1 ESE 7 11 4 6 1021.3 1021.3 0.0
08/07:00am 18.6 19.1 15.5 82 1.8 ESE 7 9 4 5 1021.1 1021.1 0.0
08/06:30am 18.5 18.6 15.6 83 1.7 ESE 9 11 5 6 1020.8 1020.8 0.0
08/06:00am 18.3 18.7 15.2 82 1.8 ESE 7 9 4 5 1020.5 1020.5 0.0
08/05:30am 18.7 19.8 15.6 82 1.8 ESE 4 7 2 4 1020.2 1020.2 0.0
08/05:00am 18.5 19.5 15.4 82 1.8 SE 4 7 2 4 1020.1 1020.1 0.0
08/04:30am 19.0 19.5 15.5 80 2.1 S 7 13 4 7 1020.1 1020.1 0.0
08/04:00am 18.9 19.4 15.6 81 1.9 SSW 7 11 4 6 1020.0 1020.0 0.0
08/03:30am 18.6 19.2 15.3 81 1.9 SSE 6 7 3 4 1020.0 1020.0 0.0
08/03:00am 19.2 18.6 15.7 80 2.1 S 13 17 7 9 1020.1 1020.1 0.0
08/02:30am 19.3 18.4 15.8 80 2.1 SSW 15 20 8 11 1020.3 1020.3 0.0
08/02:22am 19.3 18.4 15.8 80 2.1 S 15 20 8 11 1020.3 1020.3 0.0
08/02:00am 19.3 18.1 16.0 81 2.0 SSW 17 22 9 12 1020.3 1020.3 0.0
08/01:30am 19.4 17.8 16.1 81 2.0 SSW 19 24 10 13 1020.3 1020.3 0.0
08/01:00am 19.5 18.4 16.3 82 1.9 SSW 17 26 9 14 1020.2 1020.2 0.0
08/12:30am 19.5 18.8 16.5 83 1.8 SSW 15 20 8 11 1020.0 1020.0 0.0
08/12:00am 19.7 19.6 16.9 84 1.7 SSW 13 20 7 11 1019.9 1019.9 0.0
 
Date/Time
EDT
Temp
°C
App
Temp
°C
Dew
Point
Rel
Hum
%
Delta-T
°C
Wind Press
QNH
hPa
Press
MSL
hPa
Rain
since 9 am
mm
Dir
 
Spd
km/h
Gust
km/h
Spd
kts
Gust
kts
07/11:30pm 19.9 20.2 17.1 84 1.7 SSW 11 15 6 8 1019.9 1019.9 0.0
07/11:26pm 19.6 20.1 16.6 83 1.8 S 9 13 5 7 1019.8 1019.8 0.0
07/11:00pm 19.2 19.5 16.1 82 1.8 SSE 9 13 5 7 1019.6 1019.6 0.0
07/10:30pm 20.0 20.8 17.2 84 1.7 SSW 9 15 5 8 1019.4 1019.4 0.0
07/10:00pm 20.3 20.4 17.5 84 1.7 SSW 13 15 7 8 1019.4 1019.4 0.0
07/09:30pm 20.4 19.2 17.4 83 1.8 SSW 20 26 11 14 1018.9 1018.9 0.0
07/09:00pm 20.9 19.4 17.7 82 2.0 SSW 22 30 12 16 1018.5 1018.5 0.0
07/08:30pm 21.5 20.6 17.7 79 2.3 SSW 19 26 10 14 1018.0 1018.0 0.0
07/08:00pm 22.4 21.1 17.3 73 3.1 SSW 20 30 11 16 1017.6 1017.6 0.0
07/07:30pm 23.3 21.8 16.8 67 4.0 SSW 20 28 11 15 1017.0 1017.0 0.0
07/07:00pm 24.8 23.3 16.8 61 4.9 SSW 20 30 11 16 1016.5 1016.5 0.0
07/06:30pm 25.6 22.7 16.2 56 5.8 SSW 26 37 14 20 1016.0 1016.0 0.0
07/06:00pm 25.2 22.6 16.9 60 5.1 SSW 26 35 14 19 1015.8 1015.8 0.0
07/05:30pm 24.9 23.2 17.1 62 4.8 SSW 22 32 12 17 1015.6 1015.6 0.0
07/05:00pm 25.0 22.4 17.7 64 4.6 SW 28 35 15 19 1015.6 1015.6 0.0
07/04:30pm 28.4 27.2 15.0 44 8.1 SW 15 20 8 11 1015.4 1015.4 0.0
07/04:00pm 26.8 24.9 15.8 51 6.7 SSW 20 26 11 14 1015.5 1015.5 0.0
07/03:30pm 26.6 25.5 17.4 57 5.8 SSW 19 24 10 13 1015.7 1015.7 0.0
07/03:00pm 25.8 25.0 19.2 67 4.2 SW 22 30 12 16 1016.0 1016.0 0.0
07/02:30pm 25.5 24.5 18.9 67 4.2 SSW 22 30 12 16 1016.2 1016.2 0.0
07/02:00pm 26.1 25.6 19.2 65 4.4 SW 20 24 11 13 1016.3 1016.3 0.0
07/01:30pm 25.9 25.4 17.8 61 5.1 SW 17 24 9 13 1016.4 1016.4 0.0
07/01:00pm 25.1 25.3 18.5 67 4.2 SSW 15 20 8 11 1016.5 1016.5 0.0
07/12:30pm 24.8 24.7 18.7 69 3.9 SW 17 26 9 14 1016.8 1016.8 0.0
07/12:00pm 24.2 24.7 18.4 70 3.7 SW 13 17 7 9 1016.9 1016.9 0.0
07/11:30am 23.4 23.4 18.9 76 2.9 SW 17 20 9 11 1017.1 1017.1 0.0
07/11:00am 24.2 23.5 18.6 71 3.5 SW 20 26 11 14 1017.2 1017.2 0.0
07/10:30am 24.6 24.7 18.3 68 4.0 WSW 15 20 8 11 1017.2 1017.2 0.0
07/10:00am 24.1 23.5 17.6 67 4.0 WSW 17 26 9 14 1017.1 1017.1 0.0
07/09:30am 25.1 25.7 15.7 56 5.7 WNW 7 11 4 6 1016.7 1016.7 0.0
07/09:00am 23.8 24.4 15.8 61 4.8 WNW 7 11 4 6 1016.6 1016.6 0.0
07/08:30am 22.7 23.4 15.5 64 4.3 NW 6 7 3 4 1016.2 1016.2 0.0
07/08:00am 21.6 22.2 15.2 67 3.8 NNW 6 6 3 3 1015.8 1015.8 0.0
07/07:30am 19.9 20.5 15.3 75 2.7 NNW 6 7 3 4 1015.6 1015.6 0.0
07/07:00am 19.3 19.6 15.0 76 2.5 NNW 7 9 4 5 1015.3 1015.3 0.0
07/06:30am 18.6 18.7 14.5 77 2.4 N 7 9 4 5 1015.0 1015.0 0.0
07/06:00am 18.8 18.7 14.9 78 2.3 N 9 11 5 6 1014.7 1014.7 0.0
07/05:30am 18.3 18.7 15.4 83 1.7 N 7 9 4 5 1014.6 1014.6 0.0
07/05:00am 17.4 18.9 14.7 84 1.6 CALM 0 0 0 0 1014.6 1014.6 0.0
07/04:30am 17.5 18.5 14.4 82 1.8 SE 2 6 1 3 1014.5 1014.5 0.0
07/04:00am 18.2 19.1 15.1 82 1.8 E 4 6 2 3 1014.4 1014.4 0.0
07/03:30am 18.6 19.1 14.9 79 2.2 E 6 7 3 4 1014.5 1014.5 0.0
07/03:00am 18.4 18.8 14.7 79 2.1 ESE 6 6 3 3 1014.6 1014.6 0.0
07/02:30am 19.2 19.5 14.9 76 2.5 E 7 9 4 5 1014.5 1014.5 0.0
07/02:00am 20.0 20.8 15.8 77 2.5 ENE 6 7 3 4 1014.6 1014.6 0.0
07/01:30am 19.8 20.2 15.2 75 2.7 ESE 7 9 4 5 1014.7 1014.7 0.0
07/01:00am 19.7 19.7 15.1 75 2.7 SE 9 11 5 6 1014.8 1014.8 0.0
07/12:30am 20.2 20.0 14.8 71 3.2 ESE 9 13 5 7 1014.9 1014.9 0.0
07/12:00am 20.9 20.4 14.8 68 3.6 SE 11 13 6 7 1014.8 1014.8 0.0
 
Date/Time
EDT
Temp
°C
App
Temp
°C
Dew
Point
Rel
Hum
%
Delta-T
°C
Wind Press
QNH
hPa
Press
MSL
hPa
Rain
since 9 am
mm
Dir
 
Spd
km/h
Gust
km/h
Spd
kts
Gust
kts
06/11:30pm 21.8 20.7 15.2 66 3.9 SE 15 17 8 9 1014.7 1014.7 0.0
06/11:00pm 22.9 21.7 15.0 61 4.7 SE 15 17 8 9 1014.7 1014.7 0.0
06/10:30pm 23.4 22.1 14.9 59 5.1 SE 15 17 8 9 1014.6 1014.6 0.0
06/10:00pm 24.6 23.0 15.0 55 5.7 ESE 17 20 9 11 1014.4 1014.4 0.0
06/09:30pm 25.8 24.2 14.9 51 6.5 ESE 17 22 9 12 1014.0 1014.0 0.0
06/09:00pm 26.0 25.4 15.7 53 6.3 SE 13 15 7 8 1013.6 1013.6 0.0
06/08:30pm 27.7 25.7 15.0 45 7.7 SE 19 26 10 14 1013.3 1013.3 0.0
06/08:00pm 28.9 26.6 14.7 42 8.6 ESE 20 26 11 14 1013.1 1013.1 0.0
06/07:30pm 29.8 27.0 14.4 39 9.3 ESE 22 28 12 15 1012.9 1012.9 0.0
06/07:00pm 30.8 27.4 11.2 30 11.3 SE 20 28 11 15 1012.9 1012.9 0.0
06/06:30pm 31.0 27.6 11.4 30 11.4 SE 20 33 11 18 1012.8 1012.8 0.0
06/06:00pm 31.5 28.5 11.8 30 11.5 E 19 33 10 18 1012.8 1012.8 0.0
06/05:30pm 31.3 29.5 12.2 31 11.2 SSE 13 19 7 10 1013.1 1013.1 0.0
06/05:00pm 31.2 28.6 12.1 31 11.2 SSW 17 20 9 11 1013.4 1013.4 0.0
06/04:30pm 31.3 28.4 11.1 29 11.7 SW 17 20 9 11 1013.7 1013.7 0.0
06/04:00pm 31.3 27.8 8.9 25 12.5 SW 17 22 9 12 1014.1 1014.1 0.0
06/03:30pm 30.9 27.3 9.7 27 12.0 SSW 19 24 10 13 1014.5 1014.5 0.0
06/03:00pm 30.8 27.5 11.7 31 11.1 SSW 20 26 11 14 1014.6 1014.6 0.0
06/02:30pm 31.4 28.9 12.2 30 11.3 SSW 17 24 9 13 1014.9 1014.9 0.0
06/02:00pm 30.3 30.1 11.8 32 10.8 SSE 4 13 2 7 1015.3 1015.3 0.0
06/01:30pm 29.7 29.2 12.2 34 10.2 ENE 6 11 3 6 1015.7 1015.7 0.0
06/01:00pm 29.1 27.5 12.9 37 9.5 N 13 19 7 10 1016.0 1016.0 0.0
06/12:30pm 28.0 26.7 12.4 38 9.1 NNE 11 20 6 11 1016.4 1016.4 0.0
06/12:00pm 27.3 25.1 13.3 42 8.2 N 17 24 9 13 1016.8 1016.8 0.0
06/11:30am 27.3 24.6 13.6 43 8.1 N 20 28 11 15 1017.0 1017.0 0.0
06/11:00am 26.2 23.6 13.7 46 7.4 N 20 26 11 14 1017.2 1017.2 0.0
06/10:30am 24.8 21.3 13.4 49 6.7 N 24 33 13 18 1017.3 1017.3 0.0
06/10:00am 24.2 20.3 13.4 51 6.3 N 26 39 14 21 1017.4 1017.4 0.0
06/09:30am 23.0 20.4 13.8 56 5.4 N 20 32 11 17 1017.5 1017.5 0.0
06/09:00am 21.2 20.9 14.4 65 4.0 NNE 9 13 5 7 1017.7 1017.7 0.0
06/08:30am 19.3 19.3 14.3 73 2.9 N 7 11 4 6 1017.7 1017.7 0.0
06/08:00am 18.2 17.8 14.1 77 2.3 NNE 9 13 5 7 1017.4 1017.4 0.0
06/07:30am 16.9 16.2 14.2 84 1.5 N 11 13 6 7 1017.2 1017.2 0.0
06/07:00am 15.4 14.7 13.1 86 1.3 N 9 11 5 6 1016.9 1016.9 0.0
06/06:30am 14.2 13.4 11.7 85 1.3 NNE 7 9 4 5 1016.7 1016.7 0.0
06/06:00am 14.5 14.7 11.8 84 1.5 NNE 2 6 1 3 1016.3 1016.3 0.0
06/05:30am 15.1 13.7 12.2 83 1.6 NNE 11 15 6 8 1016.4 1016.4 0.0
06/05:00am 16.0 14.8 12.9 82 1.7 ENE 11 13 6 7 1015.9 1015.9 0.0
06/04:30am 15.1 14.0 11.9 81 1.7 E 9 11 5 6 1015.9 1015.9 0.0
06/04:00am 15.8 14.8 12.2 79 2.0 E 9 11 5 6 1016.0 1016.0 0.0
06/03:30am 16.3 15.7 12.3 77 2.2 E 7 9 4 5 1016.1 1016.1 0.0
06/03:00am 16.9 16.1 12.8 77 2.3 ENE 9 11 5 6 1016.1 1016.1 0.0
06/02:30am 17.4 15.9 13.1 76 2.4 E 13 17 7 9 1016.1 1016.1 0.0
06/02:00am 16.9 14.9 12.8 77 2.3 ESE 15 17 8 9 1016.3 1016.3 0.0
06/01:30am 17.1 15.1 12.6 75 2.5 ESE 15 19 8 10 1016.5 1016.5 0.0
06/01:00am 17.6 15.5 12.3 71 2.9 ESE 15 20 8 11 1016.6 1016.6 0.0
06/12:30am 18.2 15.8 12.6 70 3.1 ESE 17 24 9 13 1016.7 1016.7 0.0
06/12:00am 18.5 15.7 12.5 68 3.3 ESE 19 28 10 15 1016.8 1016.8 0.0
 
Date/Time
EDT
Temp
°C
App
Temp
°C
Dew
Point
Rel
Hum
%
Delta-T
°C
Wind Press
QNH
hPa
Press
MSL
hPa
Rain
since 9 am
mm
Dir
 
Spd
km/h
Gust
km/h
Spd
kts
Gust
kts
05/11:30pm 19.0 15.2 12.5 66 3.6 ESE 24 32 13 17 1016.8 1016.8 0.0
05/11:00pm 19.3 14.7 12.3 64 3.9 ESE 28 39 15 21 1016.8 1016.8 0.0
05/10:30pm 19.7 14.5 12.7 64 3.9 ESE 32 43 17 23 1016.9 1016.9 0.0
05/10:00pm 20.2 15.8 12.9 63 4.1 ESE 28 39 15 21 1017.0 1017.0 0.0
05/09:30pm 20.8 16.4 13.0 61 4.4 ESE 28 37 15 20 1016.9 1016.9 0.0
05/09:00pm 21.6 17.2 13.0 58 4.9 SE 28 35 15 19 1016.6 1016.6 0.0
05/08:30pm 22.5 17.6 12.7 54 5.6 SE 30 39 16 21 1016.4 1016.4 0.0
05/08:00pm 23.6 18.3 12.6 50 6.3 ESE 32 46 17 25 1016.0 1016.0 0.0
05/07:30pm 24.8 20.8 13.0 47 6.8 ESE 26 35 14 19 1015.7 1015.7 0.0
05/07:00pm 25.6 20.3 13.1 46 7.3 SE 33 43 18 23 1015.5 1015.5 0.0
05/06:30pm 26.2 20.7 12.6 43 7.9 ESE 33 44 18 24 1015.4 1015.4 0.0
05/06:00pm 27.0 21.7 13.0 42 8.2 SE 33 44 18 24 1015.5 1015.5 0.0
05/05:30pm 27.4 22.0 12.2 39 8.8 SE 32 44 17 24 1015.6 1015.6 0.0
05/05:00pm 28.0 22.4 12.0 37 9.2 SE 33 41 18 22 1015.7 1015.7 0.0
05/04:30pm 27.9 23.1 11.5 36 9.4 SE 28 39 15 21 1016.1 1016.1 0.0
05/04:00pm 28.5 23.3 12.8 38 9.2 SE 32 41 17 22 1016.2 1016.2 0.0
05/03:30pm 28.2 23.4 11.7 36 9.5 SE 28 41 15 22 1016.5 1016.5 0.0
05/03:00pm 28.8 24.7 11.4 34 10.0 SE 24 35 13 19 1016.9 1016.9 0.0
05/02:30pm 27.8 24.3 10.9 35 9.6 SE 20 33 11 18 1017.3 1017.3 0.0
05/02:00pm 27.6 23.6 10.3 34 9.7 SSE 22 30 12 16 1017.6 1017.6 0.0
05/01:30pm 27.3 24.8 10.9 36 9.3 SE 15 28 8 15 1018.1 1018.1 0.0
05/01:00pm 25.9 23.8 11.3 40 8.3 ESE 13 24 7 13 1018.6 1018.6 0.0

Other Formats:

Comma delimited format used in spreadsheet applications
http://www.bom.gov.au/fwo/IDV60801/IDV60801.94870.axf

JavaScript Object Notation format (JSON) in row-major order
http://www.bom.gov.au/fwo/IDV60801/IDV60801.94870.json